KPLR/PLR METAR and TAF weather

Enter ICAO airport designator
Station Type Date Time Source
KPLR METAR 2019/12/08 06:55 UTC NOAA

KPLR 080655Z AUTO 00000KT 10SM 09/09 A3024 RMK A01


Station Type Date Time Source
KPLR Decoded METAR 2019/12/08 06:55 UTC NOAA

Station name not available
Dec 08, 2019 - 01:55 AM EST / 2019.12.08 0655 UTC
Wind: Calm:0
Visibility: 10 mile(s):0
Temperature: 48 F (9 C)
Dew Point: 48 F (9 C)
Relative Humidity: 100%
Pressure (altimeter): 30.24 in. Hg (1024 hPa)
ob: KPLR 080655Z AUTO 00000KT 10SM 09/09 A3024 RMK A01
cycle: 7

Station Type Date Time Source
KPLR TAF UTC NOAA

Error!

Example: see airport list